createdAt,value
2018-06-10T00:05:01.303Z,13.33
2018-06-10T00:07:31.785Z,14.00
2018-06-10T00:10:01.761Z,15.00
2018-06-10T00:12:32.208Z,15.53
2018-06-10T00:15:01.724Z,15.90
2018-06-10T00:17:32.591Z,16.30
2018-06-10T00:20:02.224Z,15.63
2018-06-10T00:22:31.996Z,16.50
2018-06-10T00:28:00.199Z,14.37
2018-06-10T00:30:30.348Z,15.63
2018-06-10T00:33:00.257Z,15.40
2018-06-10T00:36:08.944Z,15.10
2018-06-10T00:38:38.487Z,12.03
2018-06-10T00:41:09.449Z,12.17
2018-06-10T00:43:38.504Z,13.37
2018-06-10T00:46:07.929Z,13.20
2018-06-10T00:48:37.036Z,14.43
2018-06-10T00:51:06.582Z,13.53
2018-06-10T00:53:36.280Z,12.77
2018-06-10T00:57:08.899Z,12.20
2018-06-10T00:59:38.558Z,11.93
2018-06-10T01:02:28.312Z,11.70
2018-06-10T01:05:00.661Z,14.40
2018-06-10T01:07:31.133Z,14.90
2018-06-10T01:10:02.337Z,11.60
2018-06-10T01:12:32.441Z,14.37
2018-06-10T01:15:02.036Z,12.17
2018-06-10T01:17:32.338Z,12.27
2018-06-10T01:20:02.447Z,12.43
2018-06-10T01:22:33.044Z,13.20
2018-06-10T01:25:04.384Z,13.80
2018-06-10T01:27:33.914Z,12.13
2018-06-10T01:30:04.175Z,12.43
2018-06-10T01:32:33.895Z,11.43
2018-06-10T01:35:03.015Z,12.30
2018-06-10T01:37:32.936Z,11.47
2018-06-10T01:40:04.017Z,12.43
2018-06-10T01:42:33.596Z,11.97
2018-06-10T01:45:03.432Z,12.50
2018-06-10T01:47:33.348Z,11.67
2018-06-10T01:50:03.238Z,11.80
2018-06-10T01:52:33.095Z,10.77
2018-06-10T01:55:05.097Z,10.97
2018-06-10T01:57:36.362Z,11.63
2018-06-10T02:00:06.286Z,11.60
2018-06-10T02:02:38.139Z,12.70
2018-06-10T02:05:08.049Z,13.30
2018-06-10T02:10:27.831Z,13.77
2018-06-10T02:15:57.891Z,14.33
2018-06-10T02:18:30.232Z,14.67
2018-06-10T02:21:01.378Z,14.43
2018-06-10T02:23:31.519Z,15.03
2018-06-10T02:26:02.228Z,13.00
2018-06-10T02:28:56.737Z,13.97
2018-06-10T02:31:30.243Z,13.70
2018-06-10T02:34:09.533Z,13.27
2018-06-10T02:36:38.813Z,13.30
2018-06-10T02:39:08.649Z,13.93
2018-06-10T02:41:38.131Z,13.93
2018-06-10T02:44:29.643Z,13.50
2018-06-10T02:47:00.063Z,14.10
2018-06-10T02:49:30.809Z,15.27
2018-06-10T02:52:02.912Z,12.80
2018-06-10T02:59:33.444Z,13.00
2018-06-10T03:02:03.271Z,9.43
2018-06-10T03:04:32.776Z,10.90
2018-06-10T03:07:02.309Z,10.90
2018-06-10T03:12:29.430Z,11.17
2018-06-10T03:15:07.428Z,11.47
2018-06-10T03:17:39.699Z,11.00
2018-06-10T03:20:28.740Z,11.00
2018-06-10T03:22:59.581Z,12.73
2018-06-10T03:25:34.260Z,12.00
2018-06-10T03:28:24.151Z,12.70
2018-06-10T03:30:58.012Z,11.37
2018-06-10T03:33:28.390Z,13.00
2018-06-10T03:36:00.158Z,11.83
2018-06-10T03:41:24.974Z,12.93
2018-06-10T03:44:02.971Z,12.43
2018-06-10T03:46:33.094Z,13.97
2018-06-10T03:49:02.807Z,12.63
2018-06-10T03:51:32.664Z,13.03
2018-06-10T03:54:02.165Z,14.90
2018-06-10T03:56:32.684Z,14.53
2018-06-10T03:59:02.905Z,14.90
2018-06-10T04:01:37.527Z,15.40
2018-06-10T04:04:07.003Z,14.90
2018-06-10T04:06:36.229Z,13.70
2018-06-10T04:11:58.933Z,14.97
2018-06-10T04:14:28.940Z,13.83
2018-06-10T04:16:58.916Z,13.93
2018-06-10T04:19:29.215Z,12.87
2018-06-10T04:21:59.406Z,14.33
2018-06-10T04:24:29.574Z,14.00
2018-06-10T04:27:00.156Z,14.40
2018-06-10T04:29:30.333Z,14.20
2018-06-10T04:32:01.416Z,14.07
2018-06-10T04:34:31.940Z,13.03
2018-06-10T04:37:02.444Z,14.27
2018-06-10T04:39:32.593Z,13.33
2018-06-10T04:42:02.560Z,14.57
2018-06-10T04:44:32.938Z,13.40
2018-06-10T04:47:03.509Z,15.33
2018-06-10T04:49:33.849Z,15.33
2018-06-10T04:52:04.671Z,14.87
2018-06-10T04:54:34.338Z,16.77
2018-06-10T04:57:03.678Z,16.63
2018-06-10T04:59:33.678Z,17.30
2018-06-10T05:02:05.643Z,17.50
2018-06-10T05:04:35.257Z,18.07
2018-06-10T05:07:04.608Z,19.13
2018-06-10T05:09:34.072Z,17.90
2018-06-10T05:12:03.924Z,19.53
2018-06-10T05:14:33.503Z,17.47
2018-06-10T05:17:03.613Z,16.60
2018-06-10T05:19:33.645Z,17.90
2018-06-10T05:22:03.413Z,17.10
2018-06-10T05:24:33.259Z,17.67
2018-06-10T05:27:03.331Z,16.27
2018-06-10T05:29:33.222Z,17.80
2018-06-10T05:32:02.992Z,17.07
2018-06-10T05:34:33.681Z,18.90
2018-06-10T05:37:03.605Z,17.10
2018-06-10T05:39:32.817Z,17.33
2018-06-10T05:42:02.325Z,14.70
2018-06-10T05:44:32.700Z,16.47
2018-06-10T05:47:02.919Z,17.27
2018-06-10T05:49:32.844Z,15.67
2018-06-10T05:52:02.916Z,16.40
2018-06-10T05:57:29.814Z,15.50
2018-06-10T06:02:44.344Z,14.70
2018-06-10T06:05:37.021Z,16.53
2018-06-10T06:08:06.553Z,14.63
2018-06-10T06:10:35.675Z,14.90
2018-06-10T06:13:05.790Z,14.17
2018-06-10T06:15:35.242Z,14.30
2018-06-10T06:18:04.616Z,15.57
2018-06-10T06:20:33.900Z,14.00
2018-06-10T06:23:03.812Z,14.90
2018-06-10T06:25:33.493Z,16.33
2018-06-10T06:28:05.092Z,13.17
2018-06-10T06:30:37.762Z,14.53
2018-06-10T06:33:07.265Z,25.10
2018-06-10T06:36:00.584Z,23.83
2018-06-10T06:38:31.245Z,13.53
2018-06-10T06:41:01.426Z,13.60
2018-06-10T06:43:33.816Z,14.50
2018-06-10T06:46:04.915Z,14.10
2018-06-10T06:48:34.504Z,14.83
2018-06-10T06:51:33.822Z,14.43
2018-06-10T06:54:05.084Z,14.00
2018-06-10T06:56:34.438Z,13.43
2018-06-10T06:59:06.023Z,14.40
2018-06-10T07:01:36.407Z,15.03
2018-06-10T07:04:06.197Z,14.20
2018-06-10T07:09:38.360Z,11.60
2018-06-10T07:12:08.408Z,13.73
2018-06-10T07:17:41.459Z,12.10
2018-06-10T07:20:27.797Z,11.37
2018-06-10T07:23:08.531Z,12.57
2018-06-10T07:26:10.437Z,11.07
2018-06-10T07:28:39.596Z,11.20
2018-06-10T07:31:09.721Z,12.60
2018-06-10T07:33:38.843Z,11.57
2018-06-10T07:36:08.016Z,11.93
2018-06-10T07:38:36.941Z,11.80
2018-06-10T07:41:06.713Z,13.50
2018-06-10T07:43:36.124Z,11.17
2018-06-10T07:46:05.735Z,12.27
2018-06-10T07:48:37.472Z,10.93
2018-06-10T07:51:16.705Z,10.63
2018-06-10T07:53:45.479Z,11.20
2018-06-10T07:56:14.251Z,12.30
2018-06-10T07:58:46.368Z,12.00
2018-06-10T08:01:30.093Z,10.80
2018-06-10T08:04:01.018Z,10.10
2018-06-10T08:06:32.005Z,10.70
2018-06-10T08:09:01.665Z,10.93
2018-06-10T08:17:18.602Z,12.27
2018-06-10T08:19:47.268Z,8.80
2018-06-10T08:22:15.667Z,11.47
2018-06-10T08:24:44.105Z,10.57
2018-06-10T08:27:12.545Z,8.90
2018-06-10T08:29:40.943Z,10.20
2018-06-10T08:32:09.407Z,10.47
2018-06-10T08:34:37.806Z,10.80
2018-06-10T08:37:06.250Z,11.67
2018-06-10T08:39:34.711Z,10.83
2018-06-10T08:42:03.160Z,11.00
2018-06-10T08:44:31.759Z,11.27
2018-06-10T08:47:00.231Z,10.07
2018-06-10T08:49:28.647Z,10.47
2018-06-10T08:51:57.106Z,10.70
2018-06-10T08:54:25.529Z,11.07
2018-06-10T08:56:54.214Z,10.90
2018-06-10T08:59:22.593Z,9.73
2018-06-10T09:01:51.031Z,9.93
2018-06-10T09:04:19.459Z,9.57
2018-06-10T09:06:47.881Z,9.97
2018-06-10T09:09:16.692Z,10.60
2018-06-10T09:11:45.133Z,10.77
2018-06-10T09:14:13.593Z,10.47
2018-06-10T09:16:42.019Z,10.10
2018-06-10T09:19:10.429Z,10.10
2018-06-10T09:21:39.203Z,10.87
2018-06-10T09:24:07.635Z,11.30
2018-06-10T09:26:36.060Z,9.90
2018-06-10T09:29:04.548Z,10.70
2018-06-10T09:31:32.954Z,10.90
2018-06-10T09:34:01.801Z,11.63
2018-06-10T09:36:30.287Z,11.23
2018-06-10T09:38:58.701Z,11.40
2018-06-10T09:41:27.136Z,11.03
2018-06-10T09:43:55.543Z,11.07
2018-06-10T09:46:24.131Z,11.10
2018-06-10T09:48:52.583Z,11.27
2018-06-10T09:51:20.991Z,10.13
2018-06-10T09:53:49.435Z,9.73
2018-06-10T09:56:17.862Z,10.40
2018-06-10T09:58:46.438Z,10.00
2018-06-10T10:01:14.867Z,10.97
2018-06-10T10:03:43.307Z,11.23
2018-06-10T10:06:11.739Z,8.37
2018-06-10T10:08:40.143Z,8.17
2018-06-10T10:11:08.657Z,7.77
2018-06-10T10:13:37.088Z,8.77
2018-06-10T10:16:05.547Z,8.70
2018-06-10T10:18:34.008Z,9.40
2018-06-10T10:21:02.439Z,9.23
2018-06-10T10:23:30.867Z,8.30
2018-06-10T10:25:59.311Z,7.60
2018-06-10T10:28:27.723Z,7.90
2018-06-10T10:30:56.161Z,8.90
2018-06-10T10:33:24.586Z,9.10
2018-06-10T10:35:53.029Z,7.43
2018-06-10T10:38:21.448Z,7.67
2018-06-10T10:40:49.864Z,8.30
2018-06-10T10:43:18.347Z,8.30
2018-06-10T10:45:46.815Z,8.50
2018-06-10T10:48:15.399Z,7.90
2018-06-10T10:50:43.820Z,7.53
2018-06-10T10:53:12.227Z,7.73
2018-06-10T10:55:40.711Z,8.50
2018-06-10T10:58:09.159Z,8.60
2018-06-10T11:00:37.610Z,9.40
2018-06-10T11:03:06.071Z,8.30
2018-06-10T11:05:34.459Z,9.60
2018-06-10T11:08:02.891Z,8.13
2018-06-10T11:10:31.303Z,7.90
2018-06-10T11:12:59.897Z,8.57
2018-06-10T11:15:28.400Z,8.13
2018-06-10T11:17:56.819Z,9.10
2018-06-10T11:20:25.326Z,7.97
2018-06-10T11:22:53.694Z,8.93
2018-06-10T11:25:22.200Z,8.17
2018-06-10T11:27:50.629Z,8.37
2018-06-10T11:30:19.037Z,7.70
2018-06-10T11:32:47.471Z,8.50
2018-06-10T11:35:15.867Z,9.03
2018-06-10T11:37:44.483Z,7.30
2018-06-10T11:40:12.945Z,8.83
2018-06-10T11:42:41.359Z,8.33
2018-06-10T11:45:09.847Z,8.90
2018-06-10T11:47:38.270Z,8.27
2018-06-10T11:50:06.715Z,8.90
2018-06-10T11:52:35.132Z,7.80
2018-06-10T11:55:03.567Z,8.50
2018-06-10T11:57:32.013Z,8.00
2018-06-10T12:00:00.403Z,8.93
2018-06-10T12:02:28.924Z,7.93
2018-06-10T12:04:57.335Z,8.00
2018-06-10T12:07:25.776Z,8.30
2018-06-10T12:09:54.211Z,8.40
2018-06-10T12:12:22.743Z,7.70
2018-06-10T12:14:51.205Z,8.33
2018-06-10T12:17:19.670Z,8.00
2018-06-10T12:19:48.116Z,7.63
2018-06-10T12:22:16.579Z,7.60
2018-06-10T12:24:44.961Z,7.53
2018-06-10T12:27:13.632Z,7.20
2018-06-10T12:29:42.080Z,10.07
2018-06-10T12:32:10.512Z,9.40
2018-06-10T12:34:38.959Z,8.13
2018-06-10T12:37:07.377Z,9.10
2018-06-10T12:39:35.811Z,8.70
2018-06-10T12:42:04.240Z,8.57
2018-06-10T12:44:32.680Z,8.70
2018-06-10T12:47:01.103Z,7.30
2018-06-10T12:49:29.546Z,8.83
2018-06-10T12:51:57.968Z,9.23
2018-06-10T12:54:26.432Z,8.63
2018-06-10T12:56:54.912Z,7.90
2018-06-10T12:59:23.304Z,8.13
2018-06-10T13:01:52.000Z,7.83
2018-06-10T13:04:20.511Z,7.87
2018-06-10T13:06:48.888Z,8.50
2018-06-10T13:09:17.348Z,7.97
2018-06-10T13:11:45.755Z,7.70
2018-06-10T13:14:14.155Z,7.53
2018-06-10T13:16:42.594Z,7.20
2018-06-10T13:19:11.019Z,7.30
2018-06-10T13:21:39.591Z,7.00
2018-06-10T13:24:07.983Z,8.23
2018-06-10T13:26:36.375Z,7.57
2018-06-10T13:29:04.827Z,6.80
2018-06-10T13:31:33.239Z,7.90
2018-06-10T13:34:01.748Z,6.53
2018-06-10T13:36:30.222Z,6.70
2018-06-10T13:38:58.639Z,7.00
2018-06-10T13:41:27.103Z,6.83
2018-06-10T13:43:56.015Z,6.80
2018-06-10T13:46:24.588Z,7.67
2018-06-10T13:48:53.060Z,7.50
2018-06-10T13:51:21.459Z,7.17
2018-06-10T13:53:49.921Z,7.20
2018-06-10T13:56:18.319Z,7.43
2018-06-10T13:58:46.823Z,8.47
2018-06-10T14:01:15.247Z,7.90
2018-06-10T14:03:43.712Z,7.60
2018-06-10T14:06:12.167Z,8.00
2018-06-10T14:08:40.604Z,8.70
2018-06-10T14:11:09.116Z,8.93
2018-06-10T14:13:37.563Z,11.13
2018-06-10T14:16:06.035Z,12.40
2018-06-10T14:18:34.475Z,12.70
2018-06-10T14:21:02.929Z,13.63
2018-06-10T14:23:31.795Z,13.90
2018-06-10T14:26:00.259Z,17.00
2018-06-10T14:28:28.680Z,16.80
2018-06-10T14:30:57.152Z,9.90
2018-06-10T14:33:25.559Z,8.33
2018-06-10T14:35:54.384Z,8.73
2018-06-10T14:38:23.096Z,8.40
2018-06-10T14:40:51.531Z,8.33
2018-06-10T14:43:19.971Z,8.10
2018-06-10T14:45:48.427Z,8.20
2018-06-10T14:48:16.990Z,5.70
2018-06-10T14:50:45.410Z,5.90
2018-06-10T14:53:13.835Z,6.50
2018-06-10T14:55:42.343Z,7.30
2018-06-10T14:58:10.845Z,8.83
2018-06-10T15:00:39.309Z,7.53
2018-06-10T15:03:07.739Z,5.37
2018-06-10T15:05:36.206Z,6.03
2018-06-10T15:08:04.651Z,5.87
2018-06-10T15:10:33.119Z,6.27
2018-06-10T15:13:01.875Z,6.00
2018-06-10T15:15:30.299Z,6.60
2018-06-10T15:17:58.751Z,6.83
2018-06-10T15:20:27.320Z,6.37
2018-06-10T15:22:55.862Z,6.60
2018-06-10T15:25:24.940Z,6.53
2018-06-10T15:27:53.912Z,5.90
2018-06-10T15:30:24.732Z,6.53
2018-06-10T15:32:54.250Z,6.37
2018-06-10T15:35:24.723Z,6.33
2018-06-10T15:37:53.194Z,7.20
2018-06-10T15:40:21.634Z,5.70
2018-06-10T15:42:50.058Z,6.13
2018-06-10T15:45:18.503Z,6.03
2018-06-10T15:47:47.443Z,6.53
2018-06-10T15:50:16.246Z,7.57
2018-06-10T15:52:45.136Z,6.53
2018-06-10T15:55:13.551Z,7.00
2018-06-10T15:57:41.983Z,6.90
2018-06-10T16:00:10.516Z,8.37
2018-06-10T16:02:39.091Z,7.40
2018-06-10T16:05:07.511Z,6.50
2018-06-10T16:07:35.918Z,7.83
2018-06-10T16:10:04.525Z,6.73
2018-06-10T16:12:32.947Z,8.20
2018-06-10T16:15:01.660Z,7.23
2018-06-10T16:17:30.164Z,7.07
2018-06-10T16:19:58.876Z,8.97
2018-06-10T16:22:27.632Z,7.57
2018-06-10T16:24:56.134Z,8.03
2018-06-10T16:27:25.928Z,7.73
2018-06-10T16:29:54.360Z,9.00
2018-06-10T16:32:22.767Z,8.93
2018-06-10T16:34:51.211Z,8.07
2018-06-10T16:37:19.612Z,10.30
2018-06-10T16:39:48.279Z,10.37
2018-06-10T16:42:16.735Z,11.30
2018-06-10T16:44:46.162Z,10.53
2018-06-10T16:47:14.784Z,11.50
2018-06-10T16:49:43.410Z,10.27
2018-06-10T16:52:12.276Z,10.40
2018-06-10T16:54:40.767Z,10.43
2018-06-10T16:57:09.432Z,9.97
2018-06-10T16:59:37.943Z,11.17
2018-06-10T17:02:06.387Z,10.50
2018-06-10T17:04:34.848Z,10.57
2018-06-10T17:07:03.314Z,11.80
2018-06-10T17:09:31.731Z,10.43
2018-06-10T17:12:00.200Z,11.30
2018-06-10T17:14:28.609Z,13.17
2018-06-10T17:16:57.188Z,11.00
2018-06-10T17:19:25.840Z,12.73
2018-06-10T17:21:54.319Z,12.13
2018-06-10T17:24:22.888Z,12.30
2018-06-10T17:26:51.299Z,12.70
2018-06-10T17:29:20.005Z,11.83
2018-06-10T17:31:48.433Z,11.07
2018-06-10T17:34:16.867Z,12.97
2018-06-10T17:36:45.295Z,13.17
2018-06-10T17:39:13.727Z,13.97
2018-06-10T17:41:42.346Z,14.53
2018-06-10T17:44:10.763Z,14.10
2018-06-10T17:46:39.197Z,12.50
2018-06-10T17:49:07.667Z,13.37
2018-06-10T17:51:36.110Z,9.87
2018-06-10T17:54:04.611Z,11.20
2018-06-10T17:56:33.027Z,11.00
2018-06-10T17:59:01.453Z,10.63
2018-06-10T18:01:29.911Z,12.57
2018-06-10T18:03:58.341Z,18.50
2018-06-10T18:06:26.931Z,19.33
2018-06-10T18:08:55.294Z,20.70
2018-06-10T18:11:23.719Z,22.20
2018-06-10T18:13:52.159Z,23.70
2018-06-10T18:16:20.599Z,22.23
2018-06-10T18:18:49.243Z,25.20
2018-06-10T18:21:17.692Z,22.80
2018-06-10T18:23:46.123Z,26.13
2018-06-10T18:26:14.597Z,26.80
2018-06-10T18:28:43.008Z,24.83
2018-06-10T18:31:11.802Z,28.37
2018-06-10T18:33:40.261Z,26.77
2018-06-10T18:36:08.746Z,27.27
2018-06-10T18:38:37.628Z,26.43
2018-06-10T18:41:06.104Z,26.37
2018-06-10T18:43:35.167Z,27.13
2018-06-10T18:46:04.111Z,28.00
2018-06-10T18:48:32.600Z,26.23
2018-06-10T18:51:01.063Z,29.70
2018-06-10T18:53:29.523Z,28.33
2018-06-10T18:55:58.141Z,30.43
2018-06-10T18:58:26.641Z,30.23
2018-06-10T19:00:55.119Z,30.53
2018-06-10T19:03:23.629Z,28.60
2018-06-10T19:05:52.325Z,31.47
2018-06-10T19:08:20.954Z,31.50
2018-06-10T19:10:49.552Z,33.60
2018-06-10T19:13:18.014Z,31.87
2018-06-10T19:15:46.506Z,36.17
2018-06-10T19:18:14.956Z,39.37
2018-06-10T19:20:43.640Z,38.37
2018-06-10T19:23:12.102Z,39.87
2018-06-10T19:25:40.557Z,40.83
2018-06-10T19:28:09.058Z,40.20
2018-06-10T19:30:37.483Z,39.13
2018-06-10T19:33:06.164Z,37.17
2018-06-10T19:35:34.665Z,37.77
2018-06-10T19:38:03.262Z,38.77
2018-06-10T19:40:31.769Z,38.47
2018-06-10T19:43:00.235Z,41.63
2018-06-10T19:45:28.726Z,38.17
2018-06-10T19:47:57.200Z,39.90
2018-06-10T19:50:25.669Z,40.30
2018-06-10T19:52:54.135Z,40.87
2018-06-10T19:55:22.579Z,40.60
2018-06-10T19:57:51.183Z,36.07
2018-06-10T20:00:19.596Z,36.57
2018-06-10T20:02:48.030Z,35.97
2018-06-10T20:05:16.522Z,35.93
2018-06-10T20:07:44.978Z,37.83
2018-06-10T20:10:13.595Z,37.30
2018-06-10T20:12:42.067Z,38.00
2018-06-10T20:15:10.484Z,40.47
2018-06-10T20:17:38.924Z,38.10
2018-06-10T20:20:07.713Z,39.17
2018-06-10T20:22:36.360Z,39.17
2018-06-10T20:25:04.830Z,38.00
2018-06-10T20:27:33.311Z,36.73
2018-06-10T20:30:02.739Z,37.33
2018-06-10T20:32:31.127Z,37.70
2018-06-10T20:34:59.607Z,38.23
2018-06-10T20:37:28.075Z,38.13
2018-06-10T20:39:56.512Z,39.50
2018-06-10T20:42:24.970Z,38.60
2018-06-10T20:44:53.389Z,37.47
2018-06-10T20:47:21.915Z,36.40
2018-06-10T20:49:50.355Z,34.07
2018-06-10T20:52:18.779Z,35.80
2018-06-10T20:54:47.225Z,35.50
2018-06-10T20:57:15.639Z,35.63
2018-06-10T20:59:44.300Z,36.03
2018-06-10T21:02:12.748Z,34.23
2018-06-10T21:04:41.205Z,35.60
2018-06-10T21:07:09.671Z,34.10
2018-06-10T21:09:38.075Z,39.37
2018-06-10T21:12:06.618Z,36.90
2018-06-10T21:14:35.043Z,37.80
2018-06-10T21:17:03.471Z,38.77
2018-06-10T21:19:31.932Z,41.77
2018-06-10T21:22:00.359Z,37.63
2018-06-10T21:24:28.936Z,38.13
2018-06-10T21:26:57.367Z,36.93
2018-06-10T21:29:25.809Z,37.13
2018-06-10T21:31:54.295Z,35.67
2018-06-10T21:34:22.727Z,37.90
2018-06-10T21:36:51.603Z,35.03
2018-06-10T21:39:20.020Z,35.40
2018-06-10T21:41:48.449Z,35.20
2018-06-10T21:44:16.908Z,35.37
2018-06-10T21:46:45.323Z,35.07
2018-06-10T21:49:13.876Z,34.83
2018-06-10T21:51:42.311Z,34.10
2018-06-10T21:54:10.787Z,34.27
2018-06-10T21:56:39.211Z,34.00
2018-06-10T21:59:07.625Z,34.07
2018-06-10T22:01:36.460Z,35.93
2018-06-10T22:04:04.955Z,34.07
2018-06-10T22:06:33.375Z,34.80
2018-06-10T22:09:01.820Z,35.80
2018-06-10T22:11:30.247Z,35.07
2018-06-10T22:13:58.796Z,35.47
2018-06-10T22:16:27.212Z,37.07
2018-06-10T22:18:55.630Z,36.97
2018-06-10T22:21:24.047Z,38.50
2018-06-10T22:23:52.459Z,37.93
2018-06-10T22:26:21.047Z,35.30
2018-06-10T22:28:49.460Z,39.17
2018-06-10T22:31:17.871Z,35.67
2018-06-10T22:33:46.326Z,38.40
2018-06-10T22:36:21.327Z,40.67
2018-06-10T22:38:49.828Z,39.80
2018-06-10T22:41:18.222Z,35.37
2018-06-10T22:43:46.649Z,36.97
2018-06-10T22:46:15.119Z,39.43
2018-06-10T22:48:43.599Z,36.43
2018-06-10T22:51:12.015Z,38.37
2018-06-10T22:54:16.268Z,37.57
2018-06-10T22:56:44.716Z,37.77
2018-06-10T22:59:13.116Z,40.00
2018-06-10T23:01:41.726Z,42.87
2018-06-10T23:04:10.152Z,44.97
2018-06-10T23:06:38.555Z,48.17
2018-06-10T23:09:07.942Z,46.43
2018-06-10T23:11:36.371Z,47.00
2018-06-10T23:14:04.930Z,48.73
2018-06-10T23:16:33.347Z,51.93
2018-06-10T23:19:01.780Z,51.53
2018-06-10T23:21:30.215Z,45.83
2018-06-10T23:23:58.642Z,51.50
2018-06-10T23:26:27.399Z,50.33
2018-06-10T23:28:55.819Z,49.57
2018-06-10T23:31:24.243Z,49.30
2018-06-10T23:33:52.679Z,51.27
2018-06-10T23:36:21.123Z,49.17
2018-06-10T23:38:49.655Z,51.30
2018-06-10T23:41:18.095Z,54.40
2018-06-10T23:43:46.519Z,49.53
2018-06-10T23:46:14.967Z,51.07
2018-06-10T23:48:43.464Z,48.73
2018-06-10T23:51:12.081Z,51.53
2018-06-10T23:53:40.491Z,50.23
2018-06-10T23:56:08.923Z,49.87
2018-06-10T23:58:37.354Z,48.23
